createdAt,value
2023-02-19T00:03:07.084Z,3.20
2023-02-19T00:08:10.398Z,3.10
2023-02-19T00:13:15.299Z,3.20
2023-02-19T00:18:18.838Z,3.30
2023-02-19T00:23:22.350Z,2.77
2023-02-19T00:28:27.543Z,3.00
2023-02-19T00:33:31.201Z,3.47
2023-02-19T00:38:37.674Z,2.97
2023-02-19T00:43:42.697Z,2.93
2023-02-19T00:48:46.136Z,2.50
2023-02-19T00:53:49.587Z,3.60
2023-02-19T00:58:54.288Z,3.03
2023-02-19T01:03:57.667Z,3.20
2023-02-19T01:09:01.161Z,3.30
2023-02-19T01:14:05.778Z,3.47
2023-02-19T01:19:09.057Z,3.40
2023-02-19T01:24:12.594Z,3.23
2023-02-19T01:29:17.405Z,3.80
2023-02-19T01:34:20.643Z,3.83
2023-02-19T01:39:24.066Z,3.80
2023-02-19T01:44:45.937Z,3.80
2023-02-19T01:49:53.669Z,4.27
2023-02-19T01:54:58.132Z,4.63
2023-02-19T02:00:04.968Z,4.20
2023-02-19T02:05:20.804Z,4.77
2023-02-19T02:10:24.244Z,3.87
2023-02-19T02:15:30.199Z,4.30
2023-02-19T02:20:37.215Z,4.27
2023-02-19T02:25:46.811Z,4.27
2023-02-19T02:30:52.782Z,3.67
2023-02-19T02:35:58.581Z,3.50
2023-02-19T02:41:03.048Z,3.50
2023-02-19T02:46:11.805Z,3.17
2023-02-19T02:51:17.532Z,3.37
2023-02-19T02:56:36.999Z,3.90
2023-02-19T03:02:02.027Z,2.77
2023-02-19T03:07:07.554Z,3.40
2023-02-19T03:12:32.193Z,3.60
2023-02-19T03:17:56.188Z,3.83
2023-02-19T03:23:01.869Z,3.83
2023-02-19T03:28:08.116Z,3.60
2023-02-19T03:33:15.082Z,2.73
2023-02-19T03:38:21.018Z,3.20
2023-02-19T03:43:33.948Z,3.10
2023-02-19T03:48:42.715Z,2.93
2023-02-19T03:53:51.345Z,2.80
2023-02-19T03:58:57.705Z,3.13
2023-02-19T04:04:05.538Z,3.10
2023-02-19T04:09:09.971Z,2.50
2023-02-19T04:14:17.338Z,2.63
2023-02-19T04:19:23.304Z,2.43
2023-02-19T04:24:29.536Z,1.83
2023-02-19T04:29:32.860Z,2.07
2023-02-19T04:34:37.590Z,1.90
2023-02-19T04:39:41.007Z,1.70
2023-02-19T04:44:44.423Z,1.20
2023-02-19T04:49:49.149Z,0.90
2023-02-19T04:54:52.586Z,0.90
2023-02-19T04:59:57.444Z,0.90
2023-02-19T05:05:02.126Z,0.90
2023-02-19T05:10:05.642Z,0.87
2023-02-19T05:15:09.120Z,1.20
2023-02-19T05:20:14.687Z,1.20
2023-02-19T05:25:18.085Z,1.00
2023-02-19T05:30:21.480Z,1.00
2023-02-19T05:35:26.219Z,0.80
2023-02-19T05:40:29.655Z,0.80
2023-02-19T05:45:33.218Z,0.90
2023-02-19T05:50:39.773Z,1.00
2023-02-19T05:55:49.225Z,1.03
2023-02-19T06:00:52.677Z,1.10
2023-02-19T06:05:57.241Z,1.33
2023-02-19T06:11:00.494Z,1.60
2023-02-19T06:16:04.724Z,1.30
2023-02-19T06:21:10.566Z,1.43
2023-02-19T06:26:14.895Z,1.50
2023-02-19T06:31:18.825Z,1.80
2023-02-19T06:36:24.422Z,1.67
2023-02-19T06:41:28.744Z,1.43
2023-02-19T06:46:31.919Z,1.43
2023-02-19T06:51:36.626Z,1.37
2023-02-19T06:56:40.890Z,1.40
2023-02-19T07:01:44.931Z,1.53
2023-02-19T07:06:49.782Z,1.40
2023-02-19T07:11:53.354Z,1.50
2023-02-19T07:16:56.862Z,1.50
2023-02-19T07:22:01.502Z,1.40
2023-02-19T07:27:05.094Z,1.27
2023-02-19T07:32:08.465Z,1.00
2023-02-19T07:37:13.052Z,1.40
2023-02-19T07:42:16.373Z,1.60
2023-02-19T07:47:20.310Z,1.87
2023-02-19T07:52:25.023Z,1.60
2023-02-19T07:57:29.253Z,1.30
2023-02-19T08:02:50.270Z,1.20
2023-02-19T08:07:55.245Z,1.20
2023-02-19T08:13:17.062Z,1.40
2023-02-19T08:18:21.460Z,1.60
2023-02-19T08:23:26.380Z,1.57
2023-02-19T08:28:30.086Z,1.37
2023-02-19T08:33:33.578Z,1.90
2023-02-19T08:38:38.556Z,1.67
2023-02-19T08:43:42.331Z,1.90
2023-02-19T08:48:45.741Z,1.83
2023-02-19T08:53:50.371Z,1.77
2023-02-19T08:58:53.690Z,2.20
2023-02-19T09:03:57.244Z,2.60
2023-02-19T09:09:02.249Z,2.53
2023-02-19T09:14:07.530Z,1.80
2023-02-19T09:19:10.862Z,2.27
2023-02-19T09:24:15.566Z,2.70
2023-02-19T09:29:18.962Z,3.40
2023-02-19T09:34:22.309Z,2.07
2023-02-19T09:39:27.240Z,1.80
2023-02-19T09:44:31.903Z,1.90
2023-02-19T09:49:36.908Z,2.40
2023-02-19T09:54:42.427Z,2.17
2023-02-19T09:59:47.718Z,2.20
2023-02-19T10:04:52.276Z,1.90
2023-02-19T10:09:59.901Z,2.17
2023-02-19T10:15:11.734Z,1.83
2023-02-19T10:20:16.278Z,1.90
2023-02-19T10:25:21.170Z,1.63
2023-02-19T10:30:25.869Z,1.63
2023-02-19T10:35:30.049Z,2.57
2023-02-19T10:40:35.018Z,1.60
2023-02-19T10:45:40.847Z,2.13
2023-02-19T10:50:45.843Z,2.10
2023-02-19T10:56:06.003Z,1.90
2023-02-19T11:01:28.100Z,1.80
2023-02-19T11:06:32.922Z,1.90
2023-02-19T11:11:39.773Z,4.90
2023-02-19T11:16:47.765Z,2.40
2023-02-19T11:21:51.146Z,2.60
2023-02-19T11:26:56.264Z,2.83
2023-02-19T11:32:05.572Z,4.20
2023-02-19T11:37:10.486Z,3.30
2023-02-19T11:42:41.202Z,5.10
2023-02-19T11:48:03.219Z,4.53
2023-02-19T11:53:15.510Z,4.27
2023-02-19T11:58:41.694Z,2.53
2023-02-19T12:03:50.925Z,1.77
2023-02-19T12:09:01.848Z,1.70
2023-02-19T12:14:11.211Z,1.93
2023-02-19T12:19:34.048Z,1.93
2023-02-19T12:24:47.535Z,1.83
2023-02-19T12:30:02.543Z,2.30
2023-02-19T12:35:20.149Z,1.83
2023-02-19T12:40:31.836Z,2.20
2023-02-19T12:45:37.651Z,1.80
2023-02-19T12:50:41.640Z,1.73
2023-02-19T12:55:47.814Z,2.07
2023-02-19T13:00:52.652Z,1.73
2023-02-19T13:05:58.845Z,1.80
2023-02-19T13:11:06.335Z,1.67
2023-02-19T13:16:13.668Z,2.00
2023-02-19T13:21:38.826Z,1.70
2023-02-19T13:26:56.945Z,1.50
2023-02-19T13:32:11.732Z,1.63
2023-02-19T13:37:15.339Z,1.60
2023-02-19T13:42:26.071Z,4.63
2023-02-19T13:47:50.348Z,1.43
2023-02-19T13:52:56.401Z,1.47
2023-02-19T13:58:14.572Z,1.60
2023-02-19T14:03:29.561Z,1.47
2023-02-19T14:08:53.245Z,1.90
2023-02-19T14:14:01.700Z,1.73
2023-02-19T14:19:14.553Z,1.70
2023-02-19T14:24:18.072Z,1.60
2023-02-19T14:29:21.384Z,1.70
2023-02-19T14:34:27.382Z,1.43
2023-02-19T14:39:31.826Z,1.60
2023-02-19T14:44:37.242Z,1.90
2023-02-19T14:49:43.591Z,1.20
2023-02-19T14:54:49.430Z,1.80
2023-02-19T14:59:53.301Z,2.10
2023-02-19T15:04:58.389Z,1.70
2023-02-19T15:10:05.511Z,1.90
2023-02-19T15:15:10.799Z,1.97
2023-02-19T15:20:20.058Z,1.70
2023-02-19T15:25:24.307Z,1.63
2023-02-19T15:30:29.531Z,1.67
2023-02-19T15:35:34.252Z,1.70
2023-02-19T15:40:37.965Z,2.60
2023-02-19T15:45:42.908Z,2.20
2023-02-19T15:50:48.782Z,2.20
2023-02-19T15:55:58.204Z,2.10
2023-02-19T16:01:03.916Z,2.10
2023-02-19T16:06:11.406Z,2.23
2023-02-19T16:11:28.633Z,2.77
2023-02-19T16:16:36.188Z,2.47
2023-02-19T16:21:47.739Z,2.60
2023-02-19T16:26:51.113Z,2.70
2023-02-19T16:31:56.752Z,2.30
2023-02-19T16:37:03.802Z,2.40
2023-02-19T16:42:16.095Z,2.60
2023-02-19T16:47:24.366Z,2.80
2023-02-19T16:52:29.515Z,2.77
2023-02-19T16:57:32.935Z,2.87
2023-02-19T17:02:36.362Z,4.33
2023-02-19T17:07:41.132Z,3.53
2023-02-19T17:12:49.415Z,2.63
2023-02-19T17:17:54.595Z,3.20
2023-02-19T17:23:02.722Z,3.67
2023-02-19T17:28:06.065Z,2.50
2023-02-19T17:33:09.505Z,4.77
2023-02-19T17:38:14.715Z,3.50
2023-02-19T17:43:18.570Z,2.93
2023-02-19T17:48:21.865Z,2.80
2023-02-19T17:53:26.470Z,3.57
2023-02-19T17:58:30.515Z,2.60
2023-02-19T18:03:33.732Z,3.00
2023-02-19T18:08:38.410Z,2.97
2023-02-19T18:13:41.751Z,2.50
2023-02-19T18:18:45.511Z,5.37
2023-02-19T18:23:52.846Z,3.03
2023-02-19T18:28:56.108Z,2.57
2023-02-19T18:34:00.962Z,2.70
2023-02-19T18:39:05.714Z,2.83
2023-02-19T18:44:09.369Z,3.67
2023-02-19T18:49:12.842Z,3.03
2023-02-19T18:54:17.680Z,3.20
2023-02-19T18:59:21.742Z,2.70
2023-02-19T19:04:25.292Z,2.53
2023-02-19T19:09:30.246Z,2.57
2023-02-19T19:14:33.759Z,2.10
2023-02-19T19:19:37.255Z,2.70
2023-02-19T19:24:42.137Z,2.83
2023-02-19T19:29:47.548Z,2.77
2023-02-19T19:34:51.149Z,2.13
2023-02-19T19:39:56.197Z,2.77
2023-02-19T19:44:59.700Z,2.40
2023-02-19T19:50:03.219Z,3.20
2023-02-19T19:55:08.378Z,3.10
2023-02-19T20:00:13.335Z,4.17
2023-02-19T20:05:17.020Z,2.70
2023-02-19T20:10:24.313Z,3.00
2023-02-19T20:15:27.957Z,3.53
2023-02-19T20:20:31.704Z,2.73
2023-02-19T20:25:36.821Z,3.37
2023-02-19T20:30:40.432Z,2.80
2023-02-19T20:35:46.211Z,3.00
2023-02-19T20:40:51.047Z,3.30
2023-02-19T20:45:55.417Z,3.00
2023-02-19T20:51:03.242Z,3.40
2023-02-19T20:56:08.597Z,3.17
2023-02-19T21:01:13.157Z,2.97
2023-02-19T21:06:16.606Z,3.47
2023-02-19T21:11:21.449Z,5.97
2023-02-19T21:16:24.896Z,3.40
2023-02-19T21:21:30.288Z,4.27
2023-02-19T21:26:36.290Z,2.90
2023-02-19T21:31:40.342Z,3.47
2023-02-19T21:36:44.104Z,3.00
2023-02-19T21:41:49.140Z,2.73
2023-02-19T21:46:53.015Z,3.23
2023-02-19T21:51:56.609Z,3.30
2023-02-19T21:57:03.691Z,3.90
2023-02-19T22:02:07.836Z,4.77
2023-02-19T22:07:11.444Z,5.57
2023-02-19T22:12:16.841Z,4.60
2023-02-19T22:17:20.927Z,5.10
2023-02-19T22:22:27.084Z,4.27
2023-02-19T22:27:31.872Z,4.00
2023-02-19T22:32:35.765Z,4.40
2023-02-19T22:37:41.274Z,4.53
2023-02-19T22:42:47.167Z,4.57
2023-02-19T22:47:50.605Z,4.07
2023-02-19T22:52:55.561Z,3.73
2023-02-19T22:58:00.762Z,4.10
2023-02-19T23:03:06.924Z,5.37
2023-02-19T23:08:10.285Z,5.40
2023-02-19T23:13:15.125Z,4.53
2023-02-19T23:18:18.794Z,3.73
2023-02-19T23:23:22.174Z,3.93
2023-02-19T23:28:26.877Z,4.40
2023-02-19T23:33:30.219Z,3.73
2023-02-19T23:38:33.567Z,3.67
2023-02-19T23:43:38.545Z,4.57
2023-02-19T23:48:41.824Z,3.47
2023-02-19T23:53:45.136Z,3.87
2023-02-19T23:58:49.759Z,4.13
